createdAt,value
2022-07-31T00:00:15.186Z,17.09
2022-07-31T00:02:41.732Z,17.00
2022-07-31T00:05:08.439Z,16.87
2022-07-31T00:07:34.952Z,16.87
2022-07-31T00:10:01.505Z,16.90
2022-07-31T00:12:28.017Z,16.87
2022-07-31T00:14:54.539Z,16.76
2022-07-31T00:17:21.089Z,16.65
2022-07-31T00:19:47.604Z,16.68
2022-07-31T00:22:14.100Z,16.60
2022-07-31T00:24:40.626Z,16.51
2022-07-31T00:27:08.015Z,16.45
2022-07-31T00:29:34.507Z,16.64
2022-07-31T00:32:01.078Z,16.39
2022-07-31T00:34:27.662Z,16.40
2022-07-31T00:36:54.217Z,16.37
2022-07-31T00:39:20.720Z,16.32
2022-07-31T00:41:47.407Z,16.20
2022-07-31T00:44:13.969Z,16.04
2022-07-31T00:46:41.324Z,16.08
2022-07-31T00:49:10.171Z,15.89
2022-07-31T00:51:37.986Z,15.89
2022-07-31T00:54:04.891Z,15.86
2022-07-31T00:56:31.387Z,15.91
2022-07-31T00:58:57.949Z,15.91
2022-07-31T01:01:24.582Z,15.90
2022-07-31T01:03:51.182Z,15.89
2022-07-31T01:06:17.678Z,15.86
2022-07-31T01:08:44.182Z,15.62
2022-07-31T01:11:18.093Z,15.64
2022-07-31T01:14:10.856Z,15.58
2022-07-31T01:16:40.289Z,15.66
2022-07-31T01:19:19.280Z,15.60
2022-07-31T01:22:04.998Z,15.60
2022-07-31T01:25:00.561Z,15.74
2022-07-31T01:27:49.603Z,15.59
2022-07-31T01:30:16.448Z,15.67
2022-07-31T01:32:44.709Z,15.72
2022-07-31T01:35:15.177Z,15.57
2022-07-31T01:37:57.018Z,15.48
2022-07-31T01:40:27.638Z,15.49
2022-07-31T01:42:58.471Z,15.46
2022-07-31T01:45:24.987Z,15.39
2022-07-31T01:47:52.212Z,15.45
2022-07-31T01:50:42.343Z,15.40
2022-07-31T01:53:05.263Z,15.43
2022-07-31T01:55:31.779Z,15.45
2022-07-31T01:58:19.102Z,15.34
2022-07-31T02:00:45.918Z,15.30
2022-07-31T02:03:12.541Z,15.31
2022-07-31T02:05:43.560Z,15.34
2022-07-31T02:08:10.557Z,15.32
2022-07-31T02:10:37.571Z,15.31
2022-07-31T02:13:04.265Z,15.51
2022-07-31T02:15:31.236Z,15.56
2022-07-31T02:17:58.152Z,15.49
2022-07-31T02:20:24.905Z,15.33
2022-07-31T02:22:51.436Z,15.20
2022-07-31T02:25:17.930Z,15.15
2022-07-31T02:27:53.980Z,15.26
2022-07-31T02:30:39.454Z,15.21
2022-07-31T02:33:07.121Z,15.27
2022-07-31T02:35:33.704Z,15.26
2022-07-31T02:38:00.198Z,15.22
2022-07-31T02:40:26.786Z,15.17
2022-07-31T02:42:53.319Z,15.11
2022-07-31T02:45:19.864Z,15.16
2022-07-31T02:47:46.368Z,15.27
2022-07-31T02:50:13.904Z,15.30
2022-07-31T02:52:46.711Z,15.32
2022-07-31T02:55:13.507Z,15.30
2022-07-31T02:57:41.337Z,15.28
2022-07-31T03:00:27.060Z,15.25
2022-07-31T03:02:54.311Z,15.26
2022-07-31T03:05:21.326Z,15.22
2022-07-31T03:07:47.898Z,15.35
2022-07-31T03:10:14.502Z,15.30
2022-07-31T03:12:42.305Z,15.25
2022-07-31T03:15:14.184Z,15.21
2022-07-31T03:17:41.309Z,15.26
2022-07-31T03:20:08.806Z,15.36
2022-07-31T03:22:35.338Z,15.33
2022-07-31T03:25:02.522Z,15.23
2022-07-31T03:27:29.014Z,15.11
2022-07-31T03:29:55.579Z,15.09
2022-07-31T03:32:22.073Z,14.95
2022-07-31T03:34:48.592Z,14.94
2022-07-31T03:37:15.131Z,14.96
2022-07-31T03:39:41.657Z,14.82
2022-07-31T03:42:18.535Z,14.89
2022-07-31T03:44:45.830Z,15.06
2022-07-31T03:47:12.399Z,15.01
2022-07-31T03:49:39.035Z,14.94
2022-07-31T03:52:10.070Z,14.93
2022-07-31T03:54:38.394Z,15.04
2022-07-31T03:57:04.910Z,15.01
2022-07-31T03:59:32.362Z,14.99
2022-07-31T04:02:07.803Z,15.05
2022-07-31T04:04:37.124Z,15.13
2022-07-31T04:07:04.687Z,15.15
2022-07-31T04:09:31.449Z,15.17
2022-07-31T04:11:57.998Z,15.15
2022-07-31T04:14:24.544Z,15.34
2022-07-31T04:16:51.091Z,15.49
2022-07-31T04:19:17.704Z,15.50
2022-07-31T04:21:44.205Z,15.54
2022-07-31T04:24:11.602Z,15.67
2022-07-31T04:26:38.117Z,15.75
2022-07-31T04:29:04.730Z,15.79
2022-07-31T04:31:31.232Z,15.92
2022-07-31T04:33:57.736Z,16.18
2022-07-31T04:36:29.779Z,16.32
2022-07-31T04:38:57.848Z,16.44
2022-07-31T04:41:24.646Z,16.55
2022-07-31T04:43:51.126Z,16.53
2022-07-31T04:46:18.084Z,16.39
2022-07-31T04:48:44.996Z,16.38
2022-07-31T04:51:21.908Z,16.43
2022-07-31T04:53:48.504Z,16.45
2022-07-31T04:56:33.353Z,16.43
2022-07-31T04:59:00.971Z,16.29
2022-07-31T05:01:27.549Z,16.21
2022-07-31T05:03:54.371Z,16.07
2022-07-31T05:06:20.898Z,16.06
2022-07-31T05:08:47.388Z,16.24
2022-07-31T05:11:23.118Z,16.18
2022-07-31T05:13:51.182Z,16.19
2022-07-31T05:16:18.571Z,16.36
2022-07-31T05:18:45.397Z,16.62
2022-07-31T05:21:12.788Z,16.97
2022-07-31T05:23:43.438Z,17.39
2022-07-31T05:26:09.978Z,17.64
2022-07-31T05:28:37.150Z,17.90
2022-07-31T05:31:04.221Z,18.08
2022-07-31T05:33:30.739Z,18.23
2022-07-31T05:35:57.509Z,18.42
2022-07-31T05:38:24.153Z,18.70
2022-07-31T05:40:50.664Z,18.92
2022-07-31T05:43:17.161Z,18.81
2022-07-31T05:45:43.935Z,18.75
2022-07-31T05:48:10.664Z,19.03
2022-07-31T05:50:37.219Z,19.09
2022-07-31T05:53:03.698Z,19.11
2022-07-31T05:55:30.192Z,19.20
2022-07-31T05:57:56.686Z,19.27
2022-07-31T06:00:23.296Z,19.11
2022-07-31T06:02:51.391Z,19.02
2022-07-31T06:05:17.924Z,18.94
2022-07-31T06:07:51.859Z,18.93
2022-07-31T06:10:18.737Z,18.95
2022-07-31T06:12:47.502Z,18.92
2022-07-31T06:15:13.982Z,18.96
2022-07-31T06:17:44.436Z,18.97
2022-07-31T06:20:11.756Z,18.95
2022-07-31T06:22:43.670Z,18.94
2022-07-31T06:25:10.361Z,18.97
2022-07-31T06:27:38.123Z,18.94
2022-07-31T06:30:08.048Z,18.93
2022-07-31T06:32:34.599Z,18.81
2022-07-31T06:35:01.153Z,18.86
2022-07-31T06:37:27.644Z,18.88
2022-07-31T06:39:55.790Z,18.82
2022-07-31T06:42:23.455Z,18.83
2022-07-31T06:44:50.165Z,18.85
2022-07-31T06:47:17.510Z,18.98
2022-07-31T06:49:44.118Z,18.99
2022-07-31T06:52:10.845Z,18.89
2022-07-31T06:54:37.322Z,19.07
2022-07-31T06:57:04.211Z,19.34
2022-07-31T06:59:39.669Z,19.67
2022-07-31T07:02:07.398Z,20.21
2022-07-31T07:05:05.164Z,20.54
2022-07-31T07:07:20.711Z,21.04
2022-07-31T07:09:47.482Z,21.09
2022-07-31T07:12:16.924Z,21.09
2022-07-31T07:14:44.070Z,21.23
2022-07-31T07:17:10.562Z,20.93
2022-07-31T07:19:39.895Z,20.97
2022-07-31T07:22:06.750Z,21.02
2022-07-31T07:24:36.278Z,21.04
2022-07-31T07:27:02.778Z,21.14
2022-07-31T07:29:29.315Z,21.06
2022-07-31T07:31:55.828Z,21.15
2022-07-31T07:34:22.402Z,21.26
2022-07-31T07:36:48.905Z,20.90
2022-07-31T07:39:15.391Z,20.69
2022-07-31T07:41:41.891Z,20.67
2022-07-31T07:44:08.451Z,20.82
2022-07-31T07:46:37.825Z,20.85
2022-07-31T07:49:04.532Z,21.05
2022-07-31T07:51:31.076Z,21.21
2022-07-31T07:53:57.570Z,21.01
2022-07-31T07:56:24.567Z,21.16
2022-07-31T07:58:51.084Z,20.83
2022-07-31T08:01:18.010Z,20.82
2022-07-31T08:03:49.687Z,20.90
2022-07-31T08:06:18.935Z,20.93
2022-07-31T08:08:45.432Z,21.01
2022-07-31T08:11:17.331Z,21.00
2022-07-31T08:13:49.787Z,21.08
2022-07-31T08:16:16.919Z,21.21
2022-07-31T08:18:43.519Z,21.20
2022-07-31T08:21:10.081Z,21.55
2022-07-31T08:23:36.943Z,21.54
2022-07-31T08:26:04.595Z,21.68
2022-07-31T08:28:33.197Z,22.27
2022-07-31T08:31:00.139Z,22.11
2022-07-31T08:33:26.648Z,21.88
2022-07-31T08:35:53.195Z,22.10
2022-07-31T08:38:20.410Z,22.29
2022-07-31T08:40:46.962Z,22.63
2022-07-31T08:44:01.862Z,22.75
2022-07-31T08:46:02.810Z,22.82
2022-07-31T08:48:31.709Z,22.61
2022-07-31T08:50:58.393Z,22.87
2022-07-31T08:53:24.898Z,23.02
2022-07-31T08:55:55.926Z,23.00
2022-07-31T08:58:24.623Z,22.96
2022-07-31T09:00:51.442Z,23.30
2022-07-31T09:03:18.022Z,23.76
2022-07-31T09:05:44.579Z,24.18
2022-07-31T09:08:14.640Z,24.58
2022-07-31T09:10:45.057Z,25.02
2022-07-31T09:13:18.842Z,25.50
2022-07-31T09:15:45.406Z,24.70
2022-07-31T09:18:21.998Z,24.48
2022-07-31T09:20:59.842Z,24.38
2022-07-31T09:23:26.789Z,24.43
2022-07-31T09:25:58.683Z,24.26
2022-07-31T09:28:38.670Z,24.13
2022-07-31T09:31:05.388Z,24.04
2022-07-31T09:33:32.402Z,23.96
2022-07-31T09:35:59.712Z,24.15
2022-07-31T09:38:31.356Z,24.08
2022-07-31T09:41:53.512Z,24.31
2022-07-31T09:44:09.583Z,24.34
2022-07-31T09:46:44.748Z,24.44
2022-07-31T09:49:11.460Z,24.51
2022-07-31T09:51:41.962Z,24.41
2022-07-31T09:54:09.128Z,24.48
2022-07-31T09:56:35.716Z,24.93
2022-07-31T09:59:02.251Z,24.99
2022-07-31T10:01:28.832Z,25.05
2022-07-31T10:03:56.777Z,25.34
2022-07-31T10:06:23.296Z,25.11
2022-07-31T10:08:49.830Z,25.31
2022-07-31T10:11:19.617Z,25.28
2022-07-31T10:13:46.788Z,25.06
2022-07-31T10:16:14.108Z,25.10
2022-07-31T10:18:44.655Z,24.82
2022-07-31T10:21:11.363Z,25.10
2022-07-31T10:23:41.711Z,25.36
2022-07-31T10:26:08.247Z,24.86
2022-07-31T10:28:37.049Z,24.88
2022-07-31T10:31:03.597Z,24.35
2022-07-31T10:33:45.465Z,23.75
2022-07-31T10:36:18.478Z,23.56
2022-07-31T10:38:52.103Z,23.97
2022-07-31T10:41:42.398Z,24.54
2022-07-31T10:44:15.909Z,25.06
2022-07-31T10:46:42.423Z,26.00
2022-07-31T10:49:09.178Z,26.20
2022-07-31T10:51:46.460Z,26.33
2022-07-31T10:54:14.155Z,25.93
2022-07-31T10:56:43.345Z,25.75
2022-07-31T10:59:12.158Z,25.33
2022-07-31T11:01:52.598Z,25.43
2022-07-31T11:04:32.354Z,25.42
2022-07-31T11:06:59.140Z,25.64
2022-07-31T11:09:26.910Z,25.25
2022-07-31T11:11:53.550Z,25.54
2022-07-31T11:14:31.665Z,25.77
2022-07-31T11:16:58.160Z,25.59
2022-07-31T11:19:25.453Z,25.91
2022-07-31T11:21:54.490Z,25.88
2022-07-31T11:24:22.732Z,25.63
2022-07-31T11:26:53.230Z,25.88
2022-07-31T11:30:00.450Z,25.71
2022-07-31T11:32:25.343Z,25.68
2022-07-31T11:34:54.002Z,25.94
2022-07-31T11:37:37.511Z,26.58
2022-07-31T11:40:14.925Z,26.86
2022-07-31T11:45:54.914Z,26.22
2022-07-31T11:48:21.801Z,26.21
2022-07-31T11:50:49.639Z,25.59
2022-07-31T11:53:16.826Z,25.82
2022-07-31T11:55:50.984Z,26.00
2022-07-31T11:58:19.238Z,25.93
2022-07-31T12:00:50.213Z,26.22
2022-07-31T12:03:17.984Z,26.01
2022-07-31T12:05:48.701Z,26.29
2022-07-31T12:08:15.304Z,26.46
2022-07-31T12:10:42.005Z,26.62
2022-07-31T12:13:16.394Z,26.25
2022-07-31T12:15:55.761Z,26.22
2022-07-31T12:18:22.364Z,25.39
2022-07-31T12:20:55.741Z,25.55
2022-07-31T12:23:40.295Z,25.87
2022-07-31T12:26:08.379Z,25.78
2022-07-31T12:28:34.866Z,26.12
2022-07-31T12:31:01.381Z,26.36
2022-07-31T12:33:27.885Z,26.56
2022-07-31T12:35:57.025Z,26.85
2022-07-31T12:38:40.803Z,26.45
2022-07-31T12:41:11.666Z,26.53
2022-07-31T12:43:38.247Z,26.79
2022-07-31T12:46:07.619Z,26.48
2022-07-31T12:48:39.304Z,26.78
2022-07-31T12:51:07.683Z,26.46
2022-07-31T12:53:34.191Z,26.54
2022-07-31T12:56:00.703Z,26.81
2022-07-31T12:58:27.193Z,27.08
2022-07-31T13:00:54.835Z,26.95
2022-07-31T13:03:21.404Z,26.66
2022-07-31T13:05:51.902Z,26.19
2022-07-31T13:08:18.693Z,25.84
2022-07-31T13:10:46.100Z,26.04
2022-07-31T13:13:12.609Z,26.32
2022-07-31T13:15:39.280Z,26.12
2022-07-31T13:18:05.902Z,25.90
2022-07-31T13:20:32.528Z,25.96
2022-07-31T13:23:02.775Z,25.73
2022-07-31T13:25:30.634Z,25.98
2022-07-31T13:27:57.881Z,26.25
2022-07-31T13:30:24.408Z,26.20
2022-07-31T13:32:50.989Z,26.27
2022-07-31T13:35:27.264Z,25.40
2022-07-31T13:37:54.720Z,25.21
2022-07-31T13:40:41.232Z,25.25
2022-07-31T13:43:07.737Z,25.26
2022-07-31T13:45:34.248Z,25.34
2022-07-31T13:48:03.351Z,25.25
2022-07-31T13:50:33.554Z,25.32
2022-07-31T13:53:00.056Z,25.42
2022-07-31T13:55:26.645Z,25.50
2022-07-31T13:57:55.336Z,25.31
2022-07-31T14:00:26.535Z,24.97
2022-07-31T14:02:53.066Z,25.22
2022-07-31T14:05:19.581Z,24.93
2022-07-31T14:07:51.724Z,24.43
2022-07-31T14:10:20.580Z,24.30
2022-07-31T14:12:47.915Z,24.23
2022-07-31T14:15:14.456Z,24.04
2022-07-31T14:17:40.986Z,23.77
2022-07-31T14:20:07.998Z,23.62
2022-07-31T14:22:34.511Z,23.34
2022-07-31T14:25:01.086Z,23.52
2022-07-31T14:27:27.637Z,23.44
2022-07-31T14:29:54.533Z,22.93
2022-07-31T14:32:22.182Z,22.71
2022-07-31T14:34:49.713Z,22.66
2022-07-31T14:37:16.276Z,22.61
2022-07-31T14:39:43.252Z,22.59
2022-07-31T14:42:09.992Z,22.57
2022-07-31T14:44:38.200Z,22.66
2022-07-31T14:47:05.127Z,22.80
2022-07-31T14:50:09.152Z,22.69
2022-07-31T14:52:18.442Z,22.96
2022-07-31T14:54:44.938Z,22.68
2022-07-31T14:57:11.522Z,22.54
2022-07-31T14:59:38.031Z,22.78
2022-07-31T15:02:04.675Z,22.97
2022-07-31T15:04:31.216Z,22.81
2022-07-31T15:07:13.042Z,22.97
2022-07-31T15:09:44.348Z,23.01
2022-07-31T15:12:13.338Z,23.05
2022-07-31T15:14:39.851Z,23.10
2022-07-31T15:17:06.630Z,23.13
2022-07-31T15:19:33.364Z,23.32
2022-07-31T15:22:16.494Z,23.66
2022-07-31T15:24:49.614Z,23.77
2022-07-31T15:27:17.902Z,23.49
2022-07-31T15:30:00.440Z,23.40
2022-07-31T15:32:30.928Z,22.96
2022-07-31T15:34:57.449Z,22.87
2022-07-31T15:37:23.980Z,22.73
2022-07-31T15:40:03.000Z,22.89
2022-07-31T15:42:34.096Z,23.12
2022-07-31T15:45:00.620Z,23.23
2022-07-31T15:47:27.108Z,22.95
2022-07-31T15:49:53.610Z,23.13
2022-07-31T15:52:20.152Z,22.92
2022-07-31T15:54:47.064Z,22.56
2022-07-31T15:57:13.741Z,22.20
2022-07-31T15:59:41.346Z,21.74
2022-07-31T16:02:07.922Z,21.57
2022-07-31T16:04:36.627Z,21.63
2022-07-31T16:08:30.767Z,21.59
2022-07-31T16:10:14.711Z,21.56
2022-07-31T16:12:46.585Z,21.33
2022-07-31T16:15:13.355Z,21.42
2022-07-31T16:17:40.326Z,21.49
2022-07-31T16:20:08.803Z,21.56
2022-07-31T16:22:39.175Z,21.50
2022-07-31T16:25:06.403Z,21.73
2022-07-31T16:27:33.002Z,21.73
2022-07-31T16:30:01.979Z,21.68
2022-07-31T16:32:29.290Z,21.88
2022-07-31T16:34:59.963Z,21.65
2022-07-31T16:37:51.234Z,21.73
2022-07-31T16:40:28.958Z,21.90
2022-07-31T16:43:48.147Z,22.19
2022-07-31T16:45:51.654Z,22.23
2022-07-31T16:48:18.326Z,22.29
2022-07-31T16:50:44.885Z,22.50
2022-07-31T16:53:34.686Z,22.62
2022-07-31T16:56:01.884Z,22.85
2022-07-31T16:58:28.807Z,22.85
2022-07-31T17:00:55.437Z,22.61
2022-07-31T17:03:59.204Z,22.60
2022-07-31T17:06:10.290Z,22.42
2022-07-31T17:08:38.102Z,22.46
2022-07-31T17:11:04.661Z,22.53
2022-07-31T17:13:31.238Z,22.51
2022-07-31T17:15:57.763Z,22.49
2022-07-31T17:18:25.337Z,22.68
2022-07-31T17:20:53.274Z,22.72
2022-07-31T17:23:43.079Z,22.53
2022-07-31T17:26:09.514Z,22.56
2022-07-31T17:28:47.186Z,22.52
2022-07-31T17:31:13.711Z,22.57
2022-07-31T17:33:58.345Z,22.40
2022-07-31T17:36:26.883Z,22.28
2022-07-31T17:38:53.422Z,22.26
2022-07-31T17:41:24.794Z,22.27
2022-07-31T17:43:55.496Z,22.26
2022-07-31T17:46:28.199Z,22.21
2022-07-31T17:49:03.601Z,22.06
2022-07-31T17:51:30.134Z,22.09
2022-07-31T17:53:59.601Z,21.98
2022-07-31T17:56:26.663Z,22.02
2022-07-31T17:58:53.365Z,21.90
2022-07-31T18:01:20.016Z,21.66
2022-07-31T18:03:47.033Z,21.52
2022-07-31T18:06:13.557Z,21.39
2022-07-31T18:08:40.055Z,21.33
2022-07-31T18:11:08.190Z,21.46
2022-07-31T18:13:47.765Z,21.22
2022-07-31T18:16:14.942Z,21.00
2022-07-31T18:18:41.434Z,21.06
2022-07-31T18:21:07.957Z,20.87
2022-07-31T18:23:34.449Z,20.80
2022-07-31T18:26:01.023Z,21.07
2022-07-31T18:28:27.524Z,21.18
2022-07-31T18:30:54.053Z,21.11
2022-07-31T18:33:20.704Z,21.11
2022-07-31T18:35:47.370Z,21.02
2022-07-31T18:38:13.875Z,21.15
2022-07-31T18:40:40.449Z,20.97
2022-07-31T18:43:07.206Z,20.96
2022-07-31T18:45:34.080Z,20.79
2022-07-31T18:48:00.874Z,20.60
2022-07-31T18:50:58.188Z,20.54
2022-07-31T18:53:14.816Z,20.46
2022-07-31T18:55:41.431Z,20.68
2022-07-31T18:58:08.088Z,20.45
2022-07-31T19:00:34.633Z,20.50
2022-07-31T19:03:01.445Z,20.28
2022-07-31T19:05:28.207Z,20.30
2022-07-31T19:07:54.848Z,20.17
2022-07-31T19:10:30.923Z,19.71
2022-07-31T19:12:58.687Z,19.44
2022-07-31T19:15:25.273Z,19.50
2022-07-31T19:17:51.749Z,19.41
2022-07-31T19:20:51.740Z,19.31
2022-07-31T19:23:12.394Z,19.15
2022-07-31T19:26:02.561Z,19.22
2022-07-31T19:28:27.220Z,19.21
2022-07-31T19:30:54.059Z,19.12
2022-07-31T19:33:20.571Z,19.21
2022-07-31T19:35:55.353Z,19.17
2022-07-31T19:38:27.202Z,19.27
2022-07-31T19:40:53.776Z,19.24
2022-07-31T19:43:20.561Z,19.21
2022-07-31T19:46:10.574Z,19.27
2022-07-31T19:48:33.859Z,19.23
2022-07-31T19:51:00.363Z,19.20
2022-07-31T19:53:27.153Z,19.11
2022-07-31T19:55:53.663Z,19.12
2022-07-31T19:58:21.240Z,19.04
2022-07-31T20:00:47.755Z,18.98
2022-07-31T20:03:14.327Z,19.11
2022-07-31T20:05:41.098Z,19.02
2022-07-31T20:08:07.802Z,19.02
2022-07-31T20:10:34.310Z,18.90
2022-07-31T20:13:00.894Z,19.00
2022-07-31T20:15:50.545Z,18.98
2022-07-31T20:18:23.257Z,19.00
2022-07-31T20:20:58.031Z,19.01
2022-07-31T20:23:27.644Z,19.00
2022-07-31T20:25:54.271Z,19.03
2022-07-31T20:28:20.876Z,19.01
2022-07-31T20:30:47.383Z,19.03
2022-07-31T20:33:13.883Z,19.08
2022-07-31T20:35:49.037Z,19.12
2022-07-31T20:38:17.812Z,19.13
2022-07-31T20:40:48.181Z,19.21
2022-07-31T20:43:25.739Z,19.08
2022-07-31T20:45:52.570Z,19.19
2022-07-31T20:48:20.951Z,19.14
2022-07-31T20:50:48.109Z,19.11
2022-07-31T20:53:15.405Z,19.23
2022-07-31T20:55:42.045Z,19.28
2022-07-31T20:58:08.573Z,19.16
2022-07-31T21:00:38.139Z,19.07
2022-07-31T21:03:05.753Z,19.13
2022-07-31T21:05:32.255Z,19.08
2022-07-31T21:07:58.788Z,19.19
2022-07-31T21:10:28.145Z,19.01
2022-07-31T21:12:56.015Z,18.91
2022-07-31T21:15:40.872Z,19.00
2022-07-31T21:18:09.535Z,18.80
2022-07-31T21:20:50.668Z,18.68
2022-07-31T21:23:19.461Z,18.71
2022-07-31T21:25:46.164Z,18.80
2022-07-31T21:28:12.807Z,18.66
2022-07-31T21:30:39.476Z,18.57
2022-07-31T21:33:09.557Z,18.52
2022-07-31T21:35:37.186Z,18.56
2022-07-31T21:38:04.408Z,18.60
2022-07-31T21:40:31.565Z,18.51
2022-07-31T21:42:58.312Z,18.50
2022-07-31T21:45:25.150Z,18.51
2022-07-31T21:47:55.571Z,18.63
2022-07-31T21:50:28.680Z,18.62
2022-07-31T21:52:55.964Z,18.66
2022-07-31T21:55:22.472Z,18.63
2022-07-31T21:57:59.625Z,18.62
2022-07-31T22:00:28.317Z,18.62
2022-07-31T22:02:56.437Z,18.50
2022-07-31T22:05:41.598Z,18.57
2022-07-31T22:08:08.125Z,18.48
2022-07-31T22:10:34.789Z,18.57
2022-07-31T22:13:01.317Z,18.51
2022-07-31T22:15:50.528Z,18.51
2022-07-31T22:18:14.540Z,18.54
2022-07-31T22:20:41.157Z,18.52
2022-07-31T22:23:07.698Z,18.48
2022-07-31T22:25:34.339Z,18.46
2022-07-31T22:28:04.196Z,18.52
2022-07-31T22:30:31.345Z,18.40
2022-07-31T22:33:01.279Z,18.45
2022-07-31T22:35:28.222Z,18.48
2022-07-31T22:37:54.741Z,18.39
2022-07-31T22:40:21.698Z,18.49
2022-07-31T22:42:57.524Z,18.31
2022-07-31T22:45:24.802Z,18.21
2022-07-31T22:47:51.562Z,18.23
2022-07-31T22:50:18.134Z,18.20
2022-07-31T22:52:44.693Z,18.29
2022-07-31T22:55:11.615Z,18.21
2022-07-31T22:57:40.720Z,18.32
2022-07-31T23:00:08.231Z,18.39
2022-07-31T23:02:34.829Z,18.30
2022-07-31T23:05:01.333Z,18.26
2022-07-31T23:07:27.874Z,18.26
2022-07-31T23:09:54.401Z,18.21
2022-07-31T23:12:20.895Z,18.29
2022-07-31T23:14:47.383Z,18.21
2022-07-31T23:17:23.314Z,18.26
2022-07-31T23:19:54.004Z,18.33
2022-07-31T23:22:33.850Z,18.31
2022-07-31T23:25:10.099Z,18.22
2022-07-31T23:27:36.618Z,18.27
2022-07-31T23:30:03.188Z,18.15
2022-07-31T23:32:29.742Z,18.18
2022-07-31T23:34:56.318Z,18.15
2022-07-31T23:37:22.833Z,18.20
2022-07-31T23:39:49.330Z,18.24
2022-07-31T23:42:34.439Z,18.21
2022-07-31T23:45:00.997Z,18.21
2022-07-31T23:47:44.662Z,18.39
2022-07-31T23:50:11.875Z,18.30
2022-07-31T23:52:38.395Z,18.28
2022-07-31T23:55:05.150Z,18.16
2022-07-31T23:57:34.623Z,18.18
